• Join FlightAware (Why Join?)
  • Login
  • US Flag 
10:22AM EST


 

Airport Tracker/Info


-or-


 

Live Flight TrackerFlight Track Log ✈ EJA952 ✈ 03-Jun-2013 ✈ KSVH - KPIT

Flight Track Log - Related Links

Times and Time Zones

All times are in EDT time to prevent confusion due to time zone crossing. See the EJA952 flight status page for this flight to view local times or setup timezone preferences in your user account.

Time Position Orientation Groundspeed Altitude Reporting Facility
EDT Latitude Longitude Course Direction KTS MPH feet Rate Location/Type
11:29AM 35.7822 -80.9797 345° North 518 596 2,600  Level Atlanta Center
11:30AM 35.8389 -80.9931 349° North 316 364 5,700 3,120 Climbing Atlanta Center
11:31AM 35.9083 -81.0161 345° North 259 298 8,900 2,100 Climbing Atlanta Center
11:32AM 35.9906 -81.0439 345° North 276 318 10,000 2,040 Climbing Atlanta Center
11:33AM 36.4895 -81.1964 345° North  Level FlightAware Approximate
11:33AM 36.0936 -81.0786 345° North 349 402 13,000  Level Atlanta Center
11:34AM 36.1903 -81.1111 345° North 365 420 15,300 2,040 Climbing Atlanta Center
11:35AM 36.2975 -81.1508 343° North 378 435 17,100 1,800 Climbing Atlanta Center
11:36AM 36.3961 -81.1808 346° North 399 459 19,000 1,800 Climbing Atlanta Center
11:37AM 36.5078 -81.2233 343° North 409 471 20,800 1,740 Climbing Atlanta Center
11:38AM 36.6211 -81.2608 345° North 414 476 22,500 1,620 Climbing Atlanta Center
11:39AM 36.7389 -81.3008 345° North 422 486 24,100 780 Climbing Atlanta Center
11:41AM 36.9967 -81.3925 344° North 479 551 25,000 480 Climbing Indianapolis Center
11:42AM 37.1378 -81.4425 344° North 498 573 25,700 1,020 Climbing Indianapolis Center
11:43AM 37.2939 -81.4747 351° North 488 562 27,200 1,260 Climbing Indianapolis Center
11:44AM 37.4194 -81.4478 10° North 492 566 28,400 840 Climbing Indianapolis Center
11:45AM 37.5533 -81.4169 10° North 500 575 29,000 240 Climbing Indianapolis Center
11:46AM 37.7178 -81.3767 11° North 513 590 29,000  Level Indianapolis Center
11:47AM 37.8547 -81.3461 10° North 529 609 29,000  Level Indianapolis Center
11:48AM 37.9972 -81.3100 11° North 525 604 29,000  Level Indianapolis Center
11:49AM 38.1411 -81.2781 10° North 525 604 29,000  Level Indianapolis Center
11:50AM 38.3119 -81.2347 11° North 525 604 29,000 -540 Level Indianapolis Center
11:51AM 38.4572 -81.2000 11° North 532 612 27,900 -1,020 Descending Indianapolis Center
11:52AM 38.5961 -81.1658 11° North 516 594 27,000 -480 Descending Indianapolis Center
11:53AM 38.7353 -81.1331 10° North 515 593 27,000  Level Indianapolis Center
11:54AM 38.8733 -81.0992 11° North 512 589 27,000 -420 Level Indianapolis Center
11:55AM 39.0142 -81.0636 11° North 515 593 26,200 -1,500 Descending Indianapolis Center
11:56AM 39.1797 -81.0239 11° North 508 585 24,000 -2,160 Descending Indianapolis Center
11:57AM 39.3153 -80.9908 11° North 499 574 21,800 -1,500 Descending Indianapolis Center
11:58AM 39.4447 -80.9592 11° North 477 549 21,000 -420 Descending Indianapolis Center
11:59AM 39.5725 -80.9281 11° North 468 539 21,000 -900 Level Indianapolis Center
12:00PM 39.7011 -80.8956 11° North 471 542 19,200 -2,040 Descending Indianapolis Center
12:01PM 39.8244 -80.8661 10° North 455 524 16,800 -2,580 Descending Indianapolis Center
12:02PM 39.9250 -80.8403 11° North 453 521 14,800 -2,640 Descending Cleveland Center
12:03PM 40.0336 -80.7919 19° North 437 503 12,400 -2,400 Descending Cleveland Center
12:04PM 40.1275 -80.7108 33° Northeast 404 465 10,100 -1,200 Descending Cleveland Center
12:05PM 40.2214 -80.6319 33° Northeast 398 458 10,000  Descending Cleveland Center
12:06PM 40.3089 -80.5450 37° Northeast 404 465 10,100 -420 Climbing Cleveland Center
12:07PM 40.3611 -80.4522 54° Northeast 352 405 9,200 -1,260 Descending Cleveland Center
12:08PM 40.3714 -80.3706 81° East 312 359 7,600 -1,560 Descending Cleveland Center
12:09PM 40.3669 -80.2561 93° East 287 330 6,100 -1,560 Descending Cleveland Center
12:10PM 40.3561 -80.1500 98° East 274 315 4,500 -1,620 Descending Cleveland Center
12:12PM 40.4833 -80.2167 270° West  Level FlightAware Approximate
12:19PM 40.4915 -80.2329 270° West  Level Estimated
12:20PM 40.4915 -80.2329 270° West  Level Estimated